createdAt,value
2018-05-04T00:02:25.988Z,9.07
2018-05-04T00:04:53.629Z,8.37
2018-05-04T00:07:21.266Z,8.47
2018-05-04T00:09:48.858Z,8.23
2018-05-04T00:12:16.550Z,8.93
2018-05-04T00:14:44.197Z,8.40
2018-05-04T00:17:11.824Z,8.27
2018-05-04T00:19:39.444Z,8.17
2018-05-04T00:22:07.061Z,9.43
2018-05-04T00:24:34.716Z,8.20
2018-05-04T00:27:02.329Z,9.07
2018-05-04T00:29:29.982Z,9.00
2018-05-04T00:31:57.610Z,8.50
2018-05-04T00:34:25.272Z,8.83
2018-05-04T00:36:52.981Z,9.20
2018-05-04T00:39:20.600Z,8.53
2018-05-04T00:41:48.251Z,9.00
2018-05-04T00:44:15.877Z,8.73
2018-05-04T00:46:43.514Z,9.07
2018-05-04T00:49:11.077Z,9.10
2018-05-04T00:51:38.674Z,8.83
2018-05-04T00:54:24.978Z,9.67
2018-05-04T00:56:53.378Z,9.40
2018-05-04T00:59:20.984Z,9.60
2018-05-04T01:01:49.397Z,10.60
2018-05-04T01:04:17.008Z,10.03
2018-05-04T01:06:44.656Z,10.17
2018-05-04T01:09:12.321Z,10.60
2018-05-04T01:11:39.921Z,10.37
2018-05-04T01:14:08.300Z,10.50
2018-05-04T01:16:35.934Z,9.83
2018-05-04T01:19:03.566Z,10.13
2018-05-04T01:21:31.210Z,10.47
2018-05-04T01:23:58.851Z,10.10
2018-05-04T01:26:26.514Z,10.77
2018-05-04T01:28:54.154Z,10.93
2018-05-04T01:31:21.799Z,9.70
2018-05-04T01:33:49.458Z,10.33
2018-05-04T01:36:17.137Z,10.03
2018-05-04T01:38:44.738Z,10.30
2018-05-04T01:41:12.379Z,10.43
2018-05-04T01:43:39.988Z,9.90
2018-05-04T01:46:07.638Z,10.60
2018-05-04T01:48:35.233Z,10.20
2018-05-04T01:51:02.857Z,10.80
2018-05-04T01:53:30.458Z,9.90
2018-05-04T01:55:58.113Z,10.53
2018-05-04T01:58:25.711Z,9.93
2018-05-04T02:00:53.429Z,10.30
2018-05-04T02:03:21.058Z,10.50
2018-05-04T02:05:48.704Z,11.30
2018-05-04T02:08:16.350Z,11.00
2018-05-04T02:10:44.005Z,10.13
2018-05-04T02:13:11.619Z,10.07
2018-05-04T02:15:39.283Z,11.07
2018-05-04T02:18:06.881Z,9.30
2018-05-04T02:20:35.238Z,10.20
2018-05-04T02:23:02.841Z,10.70
2018-05-04T02:25:30.485Z,10.10
2018-05-04T02:27:58.066Z,9.73
2018-05-04T02:30:25.724Z,10.63
2018-05-04T02:32:53.342Z,11.17
2018-05-04T02:35:20.961Z,10.33
2018-05-04T02:37:48.619Z,11.40
2018-05-04T02:40:16.331Z,10.63
2018-05-04T02:42:44.719Z,11.10
2018-05-04T02:45:13.108Z,10.60
2018-05-04T02:47:40.731Z,11.27
2018-05-04T02:50:08.614Z,10.63
2018-05-04T02:52:36.196Z,10.70
2018-05-04T02:55:03.800Z,10.40
2018-05-04T02:57:31.427Z,11.20
2018-05-04T02:59:59.076Z,11.13
2018-05-04T03:02:26.746Z,11.10
2018-05-04T03:04:54.328Z,11.23
2018-05-04T03:07:21.963Z,11.60
2018-05-04T03:09:49.557Z,12.03
2018-05-04T03:12:17.217Z,10.93
2018-05-04T03:14:44.842Z,11.93
2018-05-04T03:17:12.482Z,11.23
2018-05-04T03:19:40.078Z,12.13
2018-05-04T03:22:07.732Z,12.03
2018-05-04T03:24:35.300Z,12.30
2018-05-04T03:27:02.948Z,11.47
2018-05-04T03:29:30.593Z,11.33
2018-05-04T03:31:58.912Z,10.80
2018-05-04T03:34:26.511Z,11.30
2018-05-04T03:36:54.167Z,11.07
2018-05-04T03:39:22.648Z,10.77
2018-05-04T03:41:51.087Z,11.60
2018-05-04T03:44:18.721Z,11.80
2018-05-04T03:46:46.362Z,11.50
2018-05-04T03:49:14.722Z,11.43
2018-05-04T03:51:42.413Z,11.40
2018-05-04T03:54:10.186Z,11.53
2018-05-04T03:56:38.751Z,11.30
2018-05-04T03:59:18.070Z,11.47
2018-05-04T04:01:57.418Z,10.77
2018-05-04T04:04:25.844Z,10.50
2018-05-04T04:06:53.476Z,11.03
2018-05-04T04:09:21.149Z,10.63
2018-05-04T04:11:48.801Z,10.30
2018-05-04T04:14:16.429Z,10.43
2018-05-04T04:16:44.080Z,9.67
2018-05-04T04:19:11.758Z,10.27
2018-05-04T04:21:39.424Z,9.90
2018-05-04T04:24:07.048Z,10.37
2018-05-04T04:26:34.696Z,9.97
2018-05-04T04:29:02.280Z,10.67
2018-05-04T04:31:29.913Z,10.07
2018-05-04T04:33:57.588Z,9.53
2018-05-04T04:36:26.192Z,9.33
2018-05-04T04:38:53.786Z,9.73
2018-05-04T04:41:21.442Z,10.00
2018-05-04T04:43:49.037Z,9.43
2018-05-04T04:46:20.216Z,9.43
2018-05-04T04:48:48.726Z,8.97
2018-05-04T04:51:16.353Z,9.37
2018-05-04T04:53:44.772Z,9.00
2018-05-04T04:56:12.370Z,9.80
2018-05-04T04:58:39.989Z,9.80
2018-05-04T05:01:07.633Z,9.57
2018-05-04T05:03:36.063Z,10.30
2018-05-04T05:06:04.281Z,10.20
2018-05-04T05:08:31.943Z,9.60
2018-05-04T05:11:00.308Z,9.37
2018-05-04T05:13:28.774Z,9.40
2018-05-04T05:15:56.437Z,8.93
2018-05-04T05:18:24.090Z,9.63
2018-05-04T05:20:51.792Z,9.80
2018-05-04T05:23:20.353Z,9.43
2018-05-04T05:25:47.985Z,9.65
2018-05-04T05:28:15.637Z,8.57
2018-05-04T05:30:43.298Z,10.35
2018-05-04T05:33:11.003Z,9.35
2018-05-04T05:35:39.378Z,9.25
2018-05-04T05:38:07.809Z,10.38
2018-05-04T05:40:35.466Z,9.18
2018-05-04T05:43:03.841Z,9.07
2018-05-04T05:45:31.521Z,9.48
2018-05-04T05:47:59.152Z,9.60
2018-05-04T05:50:28.785Z,9.75
2018-05-04T05:52:56.435Z,10.05
2018-05-04T05:55:24.235Z,10.38
2018-05-04T05:57:51.944Z,10.38
2018-05-04T06:00:19.612Z,10.82
2018-05-04T06:02:47.346Z,10.32
2018-05-04T06:05:14.994Z,11.10
2018-05-04T06:07:42.846Z,11.00
2018-05-04T06:10:10.545Z,10.55
2018-05-04T06:12:38.265Z,10.02
2018-05-04T06:15:06.160Z,10.65
2018-05-04T06:17:33.901Z,11.25
2018-05-04T06:20:02.664Z,10.90
2018-05-04T06:22:30.392Z,11.70
2018-05-04T06:24:58.145Z,11.20
2018-05-04T06:27:27.209Z,10.02
2018-05-04T06:29:55.039Z,10.65
2018-05-04T06:32:25.421Z,11.57
2018-05-04T06:34:53.124Z,10.23
2018-05-04T06:37:21.503Z,10.45
2018-05-04T06:39:50.121Z,11.00
2018-05-04T06:42:17.742Z,11.70
2018-05-04T06:44:45.451Z,10.23
2018-05-04T06:47:13.834Z,11.35
2018-05-04T06:49:41.943Z,11.60
2018-05-04T06:52:09.607Z,10.75
2018-05-04T06:54:37.210Z,10.02
2018-05-04T06:57:04.842Z,10.65
2018-05-04T06:59:32.432Z,10.23
2018-05-04T07:02:00.075Z,10.55
2018-05-04T07:04:27.715Z,11.27
2018-05-04T07:06:55.340Z,10.13
2018-05-04T07:09:23.726Z,10.20
2018-05-04T07:11:52.165Z,10.55
2018-05-04T07:14:19.773Z,10.10
2018-05-04T07:16:47.389Z,10.35
2018-05-04T07:19:15.118Z,9.88
2018-05-04T07:21:42.736Z,10.07
2018-05-04T07:24:10.394Z,10.00
2018-05-04T07:26:38.771Z,10.23
2018-05-04T07:29:06.387Z,9.88
2018-05-04T07:31:34.017Z,9.35
2018-05-04T07:34:02.407Z,11.23
2018-05-04T07:36:30.073Z,10.40
2018-05-04T07:38:57.702Z,9.70
2018-05-04T07:41:28.663Z,9.30
2018-05-04T07:43:56.309Z,9.43
2018-05-04T07:46:23.935Z,8.65
2018-05-04T07:48:51.553Z,8.77
2018-05-04T07:51:19.182Z,9.25
2018-05-04T07:53:47.884Z,9.57
2018-05-04T07:59:11.279Z,9.18
2018-05-04T08:01:38.964Z,9.48
2018-05-04T08:04:06.652Z,8.80
2018-05-04T08:06:35.853Z,8.65
2018-05-04T08:09:03.631Z,8.75
2018-05-04T08:11:32.153Z,7.37
2018-05-04T08:13:59.855Z,8.18
2018-05-04T08:16:28.307Z,8.05
2018-05-04T08:18:56.192Z,8.38
2018-05-04T08:21:23.917Z,7.95
2018-05-04T08:23:52.278Z,8.25
2018-05-04T08:26:19.877Z,7.82
2018-05-04T08:28:47.493Z,8.82
2018-05-04T08:31:15.074Z,7.72
2018-05-04T08:33:42.775Z,7.93
2018-05-04T08:36:10.386Z,7.28
2018-05-04T08:38:38.012Z,7.68
2018-05-04T08:41:06.369Z,7.97
2018-05-04T08:43:33.991Z,7.95
2018-05-04T08:46:01.596Z,8.00
2018-05-04T08:48:30.060Z,8.48
2018-05-04T08:50:57.768Z,7.72
2018-05-04T08:53:26.200Z,8.43
2018-05-04T08:55:53.863Z,8.02
2018-05-04T08:58:21.482Z,8.20
2018-05-04T09:00:49.211Z,7.55
2018-05-04T09:03:17.614Z,7.57
2018-05-04T09:05:45.284Z,8.65
2018-05-04T09:08:13.649Z,8.23
2018-05-04T09:10:41.268Z,8.40
2018-05-04T09:13:08.880Z,8.98
2018-05-04T09:15:36.490Z,8.65
2018-05-04T09:18:04.906Z,15.63
2018-05-04T09:20:33.274Z,8.57
2018-05-04T09:23:01.686Z,8.48
2018-05-04T09:25:30.069Z,7.87
2018-05-04T09:27:57.677Z,8.75
2018-05-04T09:30:26.104Z,8.18
2018-05-04T09:32:53.737Z,9.57
2018-05-04T09:35:21.381Z,8.07
2018-05-04T09:37:49.748Z,9.55
2018-05-04T09:43:06.126Z,9.68
2018-05-04T09:45:57.191Z,8.77
2018-05-04T09:48:43.208Z,9.68
2018-05-04T09:51:11.678Z,9.48
2018-05-04T09:53:39.448Z,9.15
2018-05-04T09:56:07.118Z,9.68
2018-05-04T09:58:34.804Z,10.90
2018-05-04T10:01:02.476Z,10.75
2018-05-04T10:03:30.190Z,9.68
2018-05-04T10:05:59.736Z,10.18
2018-05-04T10:08:28.099Z,9.80
2018-05-04T10:10:55.942Z,10.13
2018-05-04T10:13:27.178Z,9.10
2018-05-04T10:15:58.164Z,8.80
2018-05-04T10:18:28.879Z,7.80
2018-05-04T10:21:00.022Z,7.82
2018-05-04T10:23:29.851Z,8.63
2018-05-04T10:25:57.564Z,8.13
2018-05-04T10:28:25.250Z,7.65
2018-05-04T10:30:53.102Z,7.70
2018-05-04T10:33:20.892Z,7.93
2018-05-04T10:35:48.552Z,8.55
2018-05-04T10:38:16.183Z,7.90
2018-05-04T10:40:44.556Z,7.75
2018-05-04T10:43:12.132Z,8.35
2018-05-04T10:45:39.794Z,8.68
2018-05-04T10:48:07.415Z,6.78
2018-05-04T10:50:35.802Z,8.65
2018-05-04T10:53:05.248Z,7.97
2018-05-04T10:55:33.144Z,8.88
2018-05-04T10:58:00.774Z,8.43
2018-05-04T11:00:28.461Z,8.55
2018-05-04T11:02:56.158Z,7.10
2018-05-04T11:05:23.968Z,8.45
2018-05-04T11:07:51.563Z,7.65
2018-05-04T11:10:20.385Z,8.15
2018-05-04T11:12:48.929Z,7.97
2018-05-04T11:15:16.561Z,8.70
2018-05-04T11:17:44.244Z,8.55
2018-05-04T11:20:12.747Z,8.45
2018-05-04T11:22:40.438Z,9.00
2018-05-04T11:25:08.104Z,9.57
2018-05-04T11:27:36.733Z,11.12
2018-05-04T11:30:04.425Z,9.68
2018-05-04T11:32:32.183Z,9.05
2018-05-04T11:34:59.837Z,9.30
2018-05-04T11:37:27.532Z,10.05
2018-05-04T11:39:55.169Z,9.82
2018-05-04T11:42:23.654Z,8.95
2018-05-04T11:44:51.293Z,9.23
2018-05-04T11:47:19.061Z,9.25
2018-05-04T11:49:47.338Z,9.75
2018-05-04T11:52:15.033Z,9.00
2018-05-04T11:54:43.941Z,9.63
2018-05-04T11:57:11.678Z,8.73
2018-05-04T11:59:39.321Z,9.40
2018-05-04T12:02:06.997Z,9.38
2018-05-04T12:04:34.668Z,9.23
2018-05-04T12:07:02.439Z,9.85
2018-05-04T12:09:30.697Z,9.32
2018-05-04T12:11:58.366Z,9.75
2018-05-04T12:14:25.985Z,8.93
2018-05-04T12:19:53.379Z,9.55
2018-05-04T12:22:21.084Z,9.18
2018-05-04T12:24:48.758Z,9.98
2018-05-04T12:27:16.457Z,9.32
2018-05-04T12:29:44.081Z,10.55
2018-05-04T12:32:12.023Z,9.73
2018-05-04T12:34:39.617Z,9.85
2018-05-04T12:37:07.271Z,9.10
2018-05-04T12:39:35.601Z,10.23
2018-05-04T12:42:03.161Z,8.50
2018-05-04T12:44:30.740Z,9.77
2018-05-04T12:46:58.524Z,8.95
2018-05-04T12:49:26.071Z,9.25
2018-05-04T12:51:54.809Z,9.13
2018-05-04T12:54:23.137Z,10.32
2018-05-04T12:56:51.367Z,9.23
2018-05-04T12:59:20.209Z,8.77
2018-05-04T13:01:47.843Z,9.00
2018-05-04T13:04:16.577Z,9.15
2018-05-04T13:06:44.307Z,9.40
2018-05-04T13:09:15.470Z,8.40
2018-05-04T13:11:43.526Z,7.43
2018-05-04T13:14:13.418Z,8.77
2018-05-04T13:16:41.168Z,8.82
2018-05-04T13:19:09.332Z,6.97
2018-05-04T13:21:37.210Z,8.98
2018-05-04T13:24:06.905Z,8.35
2018-05-04T13:26:35.493Z,7.75
2018-05-04T13:29:03.936Z,7.53
2018-05-04T13:36:46.711Z,7.15
2018-05-04T13:39:20.178Z,7.85
2018-05-04T13:41:47.777Z,7.95
2018-05-04T13:44:16.425Z,7.45
2018-05-04T13:46:44.145Z,8.13
2018-05-04T13:49:11.803Z,8.02
2018-05-04T13:51:40.493Z,7.45
2018-05-04T13:54:08.416Z,7.78
2018-05-04T13:56:42.292Z,6.60
2018-05-04T13:59:13.471Z,7.53
2018-05-04T14:01:42.142Z,6.97
2018-05-04T14:04:10.591Z,7.80
2018-05-04T14:06:40.578Z,7.85
2018-05-04T14:09:14.469Z,7.82
2018-05-04T14:11:42.229Z,7.22
2018-05-04T14:14:11.164Z,8.05
2018-05-04T14:16:39.645Z,7.75
2018-05-04T14:19:07.442Z,7.28
2018-05-04T14:21:35.125Z,7.37
2018-05-04T14:24:02.893Z,8.15
2018-05-04T14:26:31.635Z,7.40
2018-05-04T14:31:39.366Z,7.87
2018-05-04T14:34:07.029Z,7.18
2018-05-04T14:36:34.591Z,8.05
2018-05-04T14:39:02.129Z,7.32
2018-05-04T14:41:29.698Z,6.72
2018-05-04T14:43:57.245Z,7.30
2018-05-04T14:46:24.845Z,6.55
2018-05-04T14:48:53.161Z,6.55
2018-05-04T14:51:21.488Z,7.20
2018-05-04T14:53:49.032Z,6.68
2018-05-04T14:56:16.585Z,7.35
2018-05-04T14:58:44.202Z,6.90
2018-05-04T15:01:11.693Z,6.45
2018-05-04T15:03:39.216Z,6.95
2018-05-04T15:06:06.751Z,6.35
2018-05-04T15:08:35.058Z,6.47
2018-05-04T15:11:02.612Z,6.82
2018-05-04T15:13:30.908Z,6.72
2018-05-04T15:15:58.540Z,6.60
2018-05-04T15:18:26.049Z,6.80
2018-05-04T15:20:53.600Z,5.95
2018-05-04T15:23:21.133Z,6.72
2018-05-04T15:25:48.687Z,6.87
2018-05-04T15:28:16.217Z,7.05
2018-05-04T15:30:44.532Z,6.20
2018-05-04T15:33:12.136Z,6.28
2018-05-04T15:35:40.488Z,6.12
2018-05-04T15:38:08.016Z,6.10
2018-05-04T15:40:35.672Z,5.90
2018-05-04T15:43:03.195Z,6.65
2018-05-04T15:45:31.542Z,6.12
2018-05-04T15:47:59.080Z,5.87
2018-05-04T15:50:32.227Z,5.72
2018-05-04T15:53:00.529Z,7.55
2018-05-04T15:55:28.186Z,8.90
2018-05-04T15:58:06.825Z,5.65
2018-05-04T16:08:25.361Z,5.40
2018-05-04T16:10:53.714Z,5.53
2018-05-04T16:13:21.312Z,5.47
2018-05-04T16:15:49.659Z,5.97
2018-05-04T16:18:17.198Z,5.60
2018-05-04T16:20:44.769Z,5.47
2018-05-04T16:23:12.321Z,10.85
2018-05-04T16:25:39.871Z,6.65
2018-05-04T16:28:07.425Z,6.05
2018-05-04T16:30:35.021Z,5.70
2018-05-04T16:33:02.626Z,6.28
2018-05-04T16:35:36.223Z,4.78
2018-05-04T16:38:03.796Z,4.68
2018-05-04T16:40:32.049Z,4.80
2018-05-04T16:42:59.870Z,4.80
2018-05-04T16:45:28.243Z,5.45
2018-05-04T16:48:02.393Z,5.25
2018-05-04T16:50:30.758Z,4.97
2018-05-04T16:52:58.596Z,5.07
2018-05-04T16:55:26.282Z,4.87
2018-05-04T16:57:54.754Z,4.50
2018-05-04T17:00:22.343Z,4.60
2018-05-04T17:02:57.282Z,5.32
2018-05-04T17:05:24.869Z,4.53
2018-05-04T17:07:52.449Z,4.80
2018-05-04T17:10:20.031Z,5.57
2018-05-04T17:12:47.602Z,5.00
2018-05-04T17:15:15.156Z,5.40
2018-05-04T17:17:42.779Z,4.80
2018-05-04T17:20:10.354Z,4.78
2018-05-04T17:22:37.925Z,5.30
2018-05-04T17:25:05.480Z,5.20
2018-05-04T17:27:33.067Z,4.62
2018-05-04T17:30:01.401Z,4.70
2018-05-04T17:32:28.953Z,4.60
2018-05-04T17:34:56.483Z,4.72
2018-05-04T17:37:24.036Z,5.15
2018-05-04T17:39:51.562Z,4.90
2018-05-04T17:42:19.112Z,4.62
2018-05-04T17:44:46.635Z,5.20
2018-05-04T17:47:14.303Z,4.65
2018-05-04T17:49:41.755Z,5.45
2018-05-04T17:52:10.061Z,5.43
2018-05-04T17:54:37.605Z,4.85
2018-05-04T17:57:05.156Z,5.00
2018-05-04T17:59:32.681Z,4.70
2018-05-04T18:02:00.237Z,4.70
2018-05-04T18:04:27.774Z,5.32
2018-05-04T18:06:56.092Z,4.47
2018-05-04T18:09:23.623Z,5.20
2018-05-04T18:11:51.940Z,4.60
2018-05-04T18:14:19.464Z,4.70
2018-05-04T18:16:47.022Z,4.90
2018-05-04T18:19:14.552Z,4.80
2018-05-04T18:21:44.852Z,5.00
2018-05-04T18:24:12.501Z,4.55
2018-05-04T18:26:40.222Z,4.90
2018-05-04T18:29:07.861Z,4.70
2018-05-04T18:31:38.831Z,4.85
2018-05-04T18:34:06.425Z,5.00
2018-05-04T18:36:34.014Z,4.82
2018-05-04T18:39:03.104Z,4.50
2018-05-04T18:41:31.462Z,4.55
2018-05-04T18:43:59.025Z,4.35
2018-05-04T18:46:26.580Z,5.05
2018-05-04T18:48:54.155Z,4.55
2018-05-04T18:51:21.697Z,4.37
2018-05-04T18:53:50.301Z,4.87
2018-05-04T18:56:17.939Z,5.00
2018-05-04T18:58:45.508Z,4.30
2018-05-04T19:01:13.054Z,4.32
2018-05-04T19:03:40.617Z,4.75
2018-05-04T19:06:08.142Z,5.00
2018-05-04T19:08:35.721Z,4.30
2018-05-04T19:11:04.812Z,4.35
2018-05-04T19:13:32.355Z,3.80
2018-05-04T19:15:59.892Z,4.37
2018-05-04T19:18:30.678Z,4.97
2018-05-04T19:20:58.221Z,3.87
2018-05-04T19:23:25.822Z,5.10
2018-05-04T19:25:53.481Z,4.05
2018-05-04T19:28:23.885Z,4.05
2018-05-04T19:30:52.834Z,4.18
2018-05-04T19:33:21.714Z,4.22
2018-05-04T19:35:49.252Z,4.20
2018-05-04T19:38:16.809Z,7.12
2018-05-04T19:40:45.838Z,4.68
2018-05-04T19:43:14.485Z,4.50
2018-05-04T19:45:43.307Z,4.45
2018-05-04T19:48:10.935Z,4.30
2018-05-04T19:50:40.746Z,4.32
2018-05-04T19:53:09.083Z,4.40
2018-05-04T19:55:37.521Z,4.20
2018-05-04T19:58:06.657Z,4.47
2018-05-04T20:00:36.942Z,4.20
2018-05-04T20:03:05.731Z,4.07
2018-05-04T20:05:34.542Z,3.92
2018-05-04T20:08:02.188Z,4.40
2018-05-04T20:10:29.715Z,4.10
2018-05-04T20:12:57.369Z,3.95
2018-05-04T20:15:24.899Z,4.10
2018-05-04T20:17:52.484Z,4.03
2018-05-04T20:20:22.195Z,4.32
2018-05-04T20:22:50.988Z,3.90
2018-05-04T20:25:20.452Z,3.57
2018-05-04T20:27:48.044Z,4.17
2018-05-04T20:30:18.309Z,3.92
2018-05-04T20:32:45.877Z,4.50
2018-05-04T20:35:13.448Z,4.22
2018-05-04T20:37:41.099Z,3.70
2018-05-04T20:40:09.540Z,4.30
2018-05-04T20:45:32.343Z,3.77
2018-05-04T20:48:00.652Z,3.65
2018-05-04T20:50:28.291Z,3.60
2018-05-04T20:52:58.625Z,3.83
2018-05-04T20:55:28.752Z,4.25
2018-05-04T20:57:56.424Z,3.53
2018-05-04T21:00:26.054Z,3.73
2018-05-04T21:02:57.464Z,3.97
2018-05-04T21:05:25.081Z,3.70
2018-05-04T21:07:53.793Z,3.40
2018-05-04T21:10:26.083Z,3.47
2018-05-04T21:12:53.803Z,4.37
2018-05-04T21:15:21.460Z,3.50
2018-05-04T21:17:49.078Z,3.87
2018-05-04T21:20:16.624Z,3.97
2018-05-04T21:22:44.281Z,4.00
2018-05-04T21:25:11.810Z,3.20
2018-05-04T21:27:39.427Z,3.17
2018-05-04T21:30:06.989Z,3.63
2018-05-04T21:32:35.388Z,3.23
2018-05-04T21:35:03.785Z,3.87
2018-05-04T21:37:32.803Z,3.97
2018-05-04T21:40:00.401Z,3.30
2018-05-04T21:42:27.996Z,3.37
2018-05-04T21:44:55.544Z,3.50
2018-05-04T21:47:23.081Z,4.03
2018-05-04T21:49:51.433Z,3.03
2018-05-04T21:52:18.974Z,3.00
2018-05-04T21:54:46.542Z,4.20
2018-05-04T21:57:14.089Z,3.23
2018-05-04T21:59:41.648Z,3.43
2018-05-04T22:02:09.208Z,3.23
2018-05-04T22:04:36.770Z,3.50
2018-05-04T22:07:04.308Z,3.23
2018-05-04T22:09:31.863Z,3.20
2018-05-04T22:11:59.469Z,2.97
2018-05-04T22:14:26.968Z,2.97
2018-05-04T22:16:54.515Z,2.73
2018-05-04T22:19:22.084Z,2.93
2018-05-04T22:21:49.632Z,3.50
2018-05-04T22:24:17.949Z,3.30
2018-05-04T22:26:45.492Z,3.20
2018-05-04T22:29:13.807Z,2.97
2018-05-04T22:31:41.341Z,2.50
2018-05-04T22:34:08.896Z,2.83
2018-05-04T22:36:36.449Z,3.00
2018-05-04T22:39:04.826Z,3.17
2018-05-04T22:41:32.624Z,3.07
2018-05-04T22:44:00.180Z,3.07
2018-05-04T22:46:27.714Z,2.37
2018-05-04T22:48:55.262Z,3.30
2018-05-04T22:51:22.795Z,3.00
2018-05-04T22:53:51.133Z,2.70
2018-05-04T22:56:18.671Z,2.70
2018-05-04T22:58:46.228Z,2.90
2018-05-04T23:01:13.752Z,3.30
2018-05-04T23:03:41.314Z,2.87
2018-05-04T23:06:08.863Z,2.93
2018-05-04T23:08:37.188Z,2.80
2018-05-04T23:11:04.723Z,2.50
2018-05-04T23:13:32.287Z,2.90
2018-05-04T23:15:59.817Z,2.80
2018-05-04T23:18:28.125Z,2.60
2018-05-04T23:20:56.466Z,2.37
2018-05-04T23:23:23.977Z,2.87
2018-05-04T23:25:51.745Z,2.63
2018-05-04T23:28:19.282Z,2.80
2018-05-04T23:30:46.843Z,3.07
2018-05-04T23:33:14.401Z,2.97
2018-05-04T23:35:41.938Z,2.70
2018-05-04T23:38:09.463Z,3.27
2018-05-04T23:40:37.010Z,2.50
2018-05-04T23:43:11.003Z,2.57
2018-05-04T23:45:38.546Z,2.70
2018-05-04T23:48:06.076Z,2.83
2018-05-04T23:50:33.617Z,3.33
2018-05-04T23:53:01.916Z,3.10
2018-05-04T23:55:29.451Z,2.60
2018-05-04T23:57:57.750Z,2.93
